Time;durP1;ratioP1;P1;durP2;ratioP2;P2;SDS_P1;SDS_P2;PMS_P1;PMS_P2;Temp;Humidity;BMP_temperature;BMP_pressure;BME280_temperature;BME280_humidity;BME280_pressure;Samples;Min_cycle;Max_cycle;Signal;HPM_P1;HPM_P2
2022/01/19 00:02:17;;;;;;;9.63;5.50;;;0.80;99.90;;;-0.11;100.00;98728.06;4975880;28;20030;-41
2022/01/19 00:04:43;;;;;;;9.38;5.63;;;0.70;99.90;;;-0.15;100.00;98728.81;4981127;28;20033;-41
2022/01/19 00:07:09;;;;;;;12.55;5.72;;;0.70;99.90;;;-0.20;100.00;98728.72;4978022;28;20034;-42
2022/01/19 00:09:35;;;;;;;10.20;5.55;;;0.60;99.90;;;-0.27;100.00;98708.63;4982506;28;20034;-39
2022/01/19 00:12:01;;;;;;;12.95;6.40;;;0.60;99.90;;;-0.27;100.00;98700.84;4980395;28;20065;-41
2022/01/19 00:14:29;;;;;;;9.73;5.88;;;0.50;99.90;;;-0.34;100.00;98693.75;4976599;28;20022;-46
2022/01/19 00:16:55;;;;;;;9.77;5.95;;;0.50;99.90;;;-0.39;100.00;98674.59;4981184;28;20121;-39
2022/01/19 00:19:21;;;;;;;10.73;6.32;;;0.50;99.90;;;-0.39;100.00;98672.00;4982090;28;20026;-43
2022/01/19 00:21:46;;;;;;;10.57;6.32;;;0.40;99.90;;;-0.43;100.00;98676.22;4975408;28;20045;-41
2022/01/19 00:24:12;;;;;;;8.90;5.88;;;0.40;99.90;;;-0.49;100.00;98675.19;4981846;28;20484;-40
2022/01/19 00:26:38;;;;;;;11.40;6.05;;;0.40;99.90;;;-0.48;100.00;98684.72;4979169;28;20037;-43
2022/01/19 00:29:04;;;;;;;13.45;7.28;;;0.40;99.90;;;-0.47;100.00;98692.50;4979426;28;20030;-40
2022/01/19 00:31:29;;;;;;;11.25;6.53;;;0.30;99.90;;;-0.49;100.00;98695.91;4976489;28;20726;-43
2022/01/19 00:33:55;;;;;;;11.68;6.53;;;0.30;99.90;;;-0.52;100.00;98708.78;4983231;28;20037;-42
2022/01/19 00:36:21;;;;;;;10.43;6.63;;;0.30;99.90;;;-0.55;100.00;98719.94;4980897;28;21752;-42
2022/01/19 00:38:46;;;;;;;11.68;6.80;;;0.30;99.90;;;-0.56;100.00;98733.72;4986425;28;20034;-40
2022/01/19 00:41:12;;;;;;;11.65;6.57;;;0.30;99.90;;;-0.59;100.00;98729.34;4982336;28;20161;-40
2022/01/19 00:43:38;;;;;;;9.65;6.75;;;0.20;99.90;;;-0.59;100.00;98724.16;4984240;28;20027;-46
2022/01/19 00:46:04;;;;;;;9.55;6.07;;;0.20;99.90;;;-0.62;100.00;98725.78;4980187;28;20061;-42
2022/01/19 00:48:30;;;;;;;12.65;6.97;;;0.20;99.90;;;-0.66;100.00;98722.22;4988295;28;20073;-41
2022/01/19 00:50:58;;;;;;;13.52;6.82;;;0.20;99.90;;;-0.76;100.00;98707.25;4982373;28;20026;-39
2022/01/19 00:53:25;;;;;;;11.68;6.82;;;0.20;99.90;;;-0.71;100.00;98713.44;4985008;28;20045;-41
2022/01/19 00:55:50;;;;;;;12.18;6.72;;;0.20;99.90;;;-0.73;100.00;98720.31;4983861;28;20555;-38
2022/01/19 00:58:16;;;;;;;10.00;6.95;;;0.10;99.90;;;-0.74;100.00;98713.34;4982480;28;20030;-43
2022/01/19 01:00:42;;;;;;;13.27;6.20;;;0.10;99.90;;;-0.73;100.00;98722.03;4985951;28;20042;-42
2022/01/19 01:03:08;;;;;;;12.07;7.05;;;0.10;99.90;;;-0.79;100.00;98715.81;4986935;28;20030;-41
2022/01/19 01:05:34;;;;;;;10.07;6.75;;;0.10;99.90;;;-0.74;100.00;98723.72;4979159;28;20030;-41
2022/01/19 01:08:00;;;;;;;11.25;6.65;;;0.10;99.90;;;-0.77;100.00;98713.28;4980542;28;20110;-43
2022/01/19 01:10:26;;;;;;;14.88;7.10;;;0.10;99.90;;;-0.79;100.00;98713.22;4984579;28;20034;-42
2022/01/19 01:12:55;;;;;;;16.85;7.20;;;0.10;99.90;;;-0.80;100.00;98721.81;4985261;28;20022;-44
2022/01/19 01:20:38;;;;;;;11.50;7.90;;;0.00;99.90;;;-0.86;100.00;98710.41;4983107;28;20030;-41
2022/01/19 01:23:05;;;;;;;11.80;7.18;;;0.00;99.90;;;-0.89;100.00;98700.84;4981639;28;20058;-43
2022/01/19 01:25:32;;;;;;;12.35;7.28;;;0.00;99.90;;;-0.91;100.00;98693.88;4984587;28;20034;-42
2022/01/19 01:27:58;;;;;;;12.38;7.53;;;-0.10;99.90;;;-0.95;100.00;98672.19;4985022;28;20204;-41
2022/01/19 01:30:23;;;;;;;9.57;6.68;;;-0.10;99.90;;;-0.97;100.00;98677.31;4992060;28;20084;-49
2022/01/19 01:32:49;;;;;;;14.32;6.93;;;-0.10;99.90;;;-1.05;100.00;98660.66;4986978;28;20045;-44
2022/01/19 01:35:15;;;;;;;12.13;6.75;;;-0.10;99.90;;;-1.01;100.00;98671.97;4983727;28;20400;-40
2022/01/19 01:37:40;;;;;;;12.75;8.00;;;-0.10;99.90;;;-0.96;100.00;98679.06;4974840;28;20322;-39
2022/01/19 01:40:09;;;;;;;14.55;8.10;;;-0.10;99.90;;;-0.96;100.00;98683.38;4980112;28;20034;-41
2022/01/19 01:42:35;;;;;;;17.08;8.27;;;-0.10;99.90;;;-1.10;100.00;98656.19;4983006;28;20082;-42
2022/01/19 01:45:02;;;;;;;12.07;7.72;;;-0.10;99.90;;;-0.89;100.00;98699.97;4981942;28;20057;-41
2022/01/19 01:47:29;;;;;;;11.82;7.55;;;-0.10;99.90;;;-0.90;100.00;98695.59;4980670;28;20492;-44
2022/01/19 01:55:19;;;;;;;11.27;7.45;;;-0.10;99.90;;;-0.96;100.00;98678.19;4977671;28;20085;-39
2022/01/19 01:57:47;;;;;;;13.68;8.45;;;-0.10;99.90;;;-0.93;100.00;98664.44;4982437;28;20030;-40
2022/01/19 02:00:17;;;;;;;12.35;8.00;;;-0.10;99.90;;;-0.93;100.00;98664.44;4975297;28;20038;-42
2022/01/19 02:02:46;;;;;;;12.60;7.90;;;-0.10;99.90;;;-0.94;100.00;98660.09;4977597;28;20027;-43
2022/01/19 02:05:13;;;;;;;14.35;8.00;;;-0.10;99.90;;;-1.01;100.00;98649.56;4980414;28;20428;-41
2022/01/19 02:07:59;;;;;;;12.75;7.45;;;-0.10;99.90;;;-1.02;100.00;98650.41;4980625;28;20038;-45
2022/01/19 02:10:37;;;;;;;13.13;8.18;;;-0.10;99.90;;;-1.01;100.00;98641.78;4977128;28;20837;-40
2022/01/19 02:24:09;;;;;;;14.90;9.35;;;-0.10;99.90;;;-0.94;100.00;98616.94;4979779;28;20108;-43
2022/01/19 02:26:53;;;;;;;17.77;9.23;;;-0.10;99.90;;;-0.90;100.00;98612.72;4985057;28;20030;-46
2022/01/19 02:40:25;;;;;;;14.90;8.40;;;0.20;99.90;;;-0.65;100.00;98591.81;4980807;28;20045;-41
2022/01/19 02:43:21;;;;;;;16.92;8.70;;;0.20;99.90;;;-0.71;100.00;98576.13;4982669;28;20057;-44
2022/01/19 02:51:08;;;;;;;13.80;8.23;;;0.10;99.90;;;-0.93;100.00;98555.66;4977739;28;20185;-41
2022/01/19 02:53:38;;;;;;;14.32;8.35;;;0.00;99.90;;;-1.00;100.00;98555.50;4983978;28;20477;-38
2022/01/19 02:56:12;;;;;;;15.07;8.77;;;-0.10;99.90;;;-1.01;100.00;98556.31;4979272;28;20030;-44
2022/01/19 02:58:51;;;;;;;14.57;8.77;;;-0.10;99.90;;;-1.05;100.00;98545.84;4978952;28;20061;-42
2022/01/19 03:09:27;;;;;;;13.70;8.65;;;-0.30;99.90;;;-1.30;100.00;98508.94;4982006;28;20412;-40
2022/01/19 03:11:53;;;;;;;12.70;8.38;;;-0.40;99.90;;;-1.35;100.00;98495.88;4981049;28;21818;-44
2022/01/19 03:14:19;;;;;;;14.65;8.43;;;-0.40;99.90;;;-1.42;100.00;98491.38;4979398;28;20022;-44
2022/01/19 03:16:46;;;;;;;15.02;8.77;;;-0.40;99.90;;;-1.47;100.00;98486.88;4978282;28;20041;-42
2022/01/19 03:19:12;;;;;;;17.35;8.90;;;-0.50;99.90;;;-1.54;100.00;98468.59;4983607;28;20390;-41
2022/01/19 03:21:40;;;;;;;16.95;8.95;;;-0.50;99.90;;;-1.46;100.00;98480.88;4977564;28;20030;-42
2022/01/19 03:24:07;;;;;;;14.50;9.07;;;-0.50;99.90;;;-1.55;100.00;98468.56;4984677;28;20038;-40
2022/01/19 03:26:33;;;;;;;16.58;8.68;;;-0.50;99.90;;;-1.53;100.00;98472.06;4982705;28;20118;-43
2022/01/19 03:28:59;;;;;;;16.27;9.15;;;-0.60;99.90;;;-1.54;100.00;98468.59;4982164;28;20548;-42
2022/01/19 03:31:25;;;;;;;15.57;9.20;;;-0.60;99.90;;;-1.56;100.00;98459.06;4983111;28;20030;-42
2022/01/19 03:33:50;;;;;;;14.18;8.50;;;-0.60;99.90;;;-1.62;100.00;98469.22;4982490;28;20031;-45
2022/01/19 03:36:17;;;;;;;18.88;10.05;;;-0.60;99.90;;;-1.63;100.00;98477.81;4974603;28;20041;-43
2022/01/19 03:38:43;;;;;;;17.42;9.30;;;-0.70;99.90;;;-1.66;100.00;98472.56;4978615;28;20044;-43
2022/01/19 03:41:09;;;;;;;17.15;9.50;;;-0.70;99.90;;;-1.68;100.00;98472.50;4980160;28;20060;-39
2022/01/19 03:43:35;;;;;;;18.65;9.63;;;-0.70;99.90;;;-1.69;100.00;98475.03;4983191;28;20052;-43
2022/01/19 03:46:04;;;;;;;16.98;10.35;;;-0.80;99.90;;;-1.77;100.00;98459.31;4979624;28;20049;-46
2022/01/19 03:48:44;;;;;;;17.65;10.23;;;-0.80;99.90;;;-1.75;100.00;98465.41;4979964;28;20477;-38
2022/01/19 03:51:10;;;;;;;18.40;9.40;;;-0.80;99.90;;;-1.85;100.00;98472.00;4979332;28;20085;-44
2022/01/19 03:53:36;;;;;;;16.38;9.48;;;-0.90;99.90;;;-1.79;100.00;98455.81;4982184;28;20023;-39
2022/01/19 03:56:03;;;;;;;16.15;8.82;;;-0.90;99.90;;;-1.82;100.00;98445.38;4982433;28;20238;-43
2022/01/19 03:58:29;;;;;;;15.88;9.43;;;-0.90;99.90;;;-1.85;100.00;98448.72;4978994;28;20474;-44
2022/01/19 04:00:58;;;;;;;15.95;9.00;;;-0.90;99.90;;;-1.86;100.00;98451.28;4979376;28;20061;-42
2022/01/19 04:03:39;;;;;;;18.55;8.75;;;-1.00;99.90;;;-1.92;100.00;98449.38;4980700;28;20350;-41
2022/01/19 04:06:23;;;;;;;12.80;8.68;;;-1.00;99.90;;;-1.94;100.00;98451.06;4979482;28;20088;-41
2022/01/19 04:08:49;;;;;;;17.30;9.07;;;-1.00;99.90;;;-1.91;100.00;98448.56;4982969;28;20505;-41
2022/01/19 04:11:17;;;;;;;17.25;9.55;;;-1.00;99.90;;;-1.97;100.00;98441.50;4986890;28;20062;-40
2022/01/19 04:13:57;;;;;;;18.90;10.20;;;-1.00;99.90;;;-1.92;100.00;98454.56;4983015;28;20522;-39
2022/01/19 04:16:23;;;;;;;20.15;9.65;;;-1.00;99.90;;;-1.96;100.00;98438.06;4984212;28;20496;-39
2022/01/19 04:18:52;;;;;;;16.10;10.07;;;-1.00;99.90;;;-2.02;100.00;98427.56;4985440;28;20044;-40
2022/01/19 04:21:17;;;;;;;18.20;9.38;;;-1.00;99.90;;;-2.03;100.00;98430.09;4980499;28;20042;-40
2022/01/19 04:23:44;;;;;;;14.50;9.05;;;-1.10;99.90;;;-2.05;100.00;98426.59;4986738;28;20096;-42
2022/01/19 04:26:10;;;;;;;16.73;9.20;;;-1.00;99.90;;;-2.11;100.00;98423.00;4983004;28;20030;-39
2022/01/19 04:28:36;;;;;;;13.00;8.68;;;-1.00;99.90;;;-2.06;100.00;98430.00;4987468;28;20046;-44
2022/01/19 04:31:02;;;;;;;16.17;8.70;;;-1.10;99.90;;;-2.05;100.00;98430.06;4982452;28;20057;-47
2022/01/19 04:33:28;;;;;;;15.18;9.02;;;-1.10;99.90;;;-2.04;100.00;98431.81;4983018;28;20369;-42
2022/01/19 04:36:06;;;;;;;15.77;8.93;;;-1.20;99.90;;;-2.16;100.00;98409.06;5026436;22;20199;-44
2022/01/19 05:09:00;;;;;;;15.85;9.35;;;-1.20;99.90;;;-2.15;100.00;98369.47;5002096;28;20076;-47
2022/01/19 05:14:10;;;;;;;16.45;9.10;;;-1.20;99.90;;;-2.19;100.00;98371.91;5020700;28;20059;-45
2022/01/19 05:16:36;;;;;;;18.95;9.45;;;-1.20;99.90;;;-2.20;100.00;98359.84;5022174;28;20029;-49
2022/01/19 05:19:02;;;;;;;15.27;9.82;;;-1.30;99.90;;;-2.20;100.00;98370.19;5023291;28;20032;-46
2022/01/19 05:21:28;;;;;;;14.48;8.88;;;-1.30;99.90;;;-2.25;100.00;98357.09;5023941;28;20034;-47
2022/01/19 05:23:53;;;;;;;19.58;9.65;;;-1.30;99.90;;;-2.26;100.00;98357.94;5022418;28;20210;-49
2022/01/19 05:26:19;;;;;;;17.67;9.57;;;-1.30;99.90;;;-2.29;100.00;98351.81;5019041;28;20403;-47
2022/01/19 05:28:45;;;;;;;17.10;10.55;;;-1.40;99.90;;;-2.43;100.00;98329.03;5023864;28;20036;-48
2022/01/19 05:31:11;;;;;;;21.75;11.20;;;-1.40;99.90;;;-2.32;100.00;98352.59;5021481;28;20033;-46
2022/01/19 05:33:37;;;;;;;22.95;11.80;;;-1.40;99.90;;;-2.32;100.00;98352.59;5024924;28;20021;-44
2022/01/19 05:36:03;;;;;;;19.58;10.93;;;-1.40;99.90;;;-2.32;100.00;98347.41;5016912;28;20450;-45
2022/01/19 05:38:29;;;;;;;20.10;10.43;;;-1.40;99.90;;;-2.31;100.00;98333.69;5008232;28;20025;-46
2022/01/19 05:40:55;;;;;;;19.00;11.23;;;-1.40;99.90;;;-2.31;100.00;98337.13;5022953;28;20348;-47
2022/01/19 05:43:21;;;;;;;19.48;11.23;;;-1.40;99.90;;;-2.32;100.00;98337.09;5026205;28;20033;-46
2022/01/19 05:45:47;;;;;;;17.42;10.65;;;-1.40;99.90;;;-2.37;100.00;98328.31;5019189;28;20018;-45
2022/01/19 05:48:13;;;;;;;18.70;11.02;;;-1.40;99.90;;;-2.38;100.00;98324.88;5019584;28;20061;-47
2022/01/19 05:50:38;;;;;;;17.73;10.15;;;-1.40;99.90;;;-2.41;100.00;98314.44;5020833;28;20491;-46
2022/01/19 05:53:04;;;;;;;17.42;10.52;;;-1.40;99.90;;;-2.38;100.00;98319.69;5018048;28;20041;-46
2022/01/19 05:55:30;;;;;;;18.58;10.68;;;-1.40;99.90;;;-2.38;100.00;98316.25;5024019;28;20105;-44
2022/01/19 05:57:55;;;;;;;19.70;11.13;;;-1.40;99.90;;;-2.38;100.00;98313.66;5024177;28;20051;-45
2022/01/19 06:00:21;;;;;;;16.17;10.43;;;-1.40;99.90;;;-2.38;100.00;98316.25;5020855;28;20415;-40
2022/01/19 06:02:48;;;;;;;17.40;10.27;;;-1.50;99.90;;;-2.42;100.00;98311.81;5019397;28;20041;-47
2022/01/19 06:05:13;;;;;;;18.50;10.13;;;-1.40;99.90;;;-2.41;100.00;98314.44;5021808;28;20029;-46
2022/01/19 06:07:43;;;;;;;20.40;9.98;;;-1.40;99.90;;;-2.38;100.00;98316.25;5020265;28;20518;-44
2022/01/19 06:10:11;;;;;;;16.35;10.10;;;-1.50;99.90;;;-2.40;100.00;98315.34;5018402;28;20038;-44
2022/01/19 06:12:41;;;;;;;21.35;10.07;;;-1.50;99.90;;;-2.40;100.00;98308.44;5014712;28;20026;-47
2022/01/19 06:15:07;;;;;;;19.45;9.85;;;-1.50;99.90;;;-2.40;100.00;98317.91;5014758;28;20040;-42
2022/01/19 06:17:33;;;;;;;16.20;9.77;;;-1.50;99.90;;;-2.42;100.00;98314.38;5018958;28;20441;-39
2022/01/19 06:19:59;;;;;;;16.05;9.52;;;-1.50;99.90;;;-2.41;100.00;98314.44;5022213;28;20098;-45
2022/01/19 06:22:25;;;;;;;19.23;10.13;;;-1.50;99.90;;;-2.43;100.00;98316.09;5023179;28;20399;-46
2022/01/19 06:24:51;;;;;;;14.00;9.40;;;-1.50;99.90;;;-2.43;100.00;98312.66;5021402;28;20033;-44
2022/01/19 06:27:17;;;;;;;18.38;9.90;;;-1.50;99.90;;;-2.39;100.00;98317.06;5023294;28;20025;-45
2022/01/19 06:29:42;;;;;;;21.35;9.25;;;-1.50;99.90;;;-2.41;100.00;98296.34;5023285;28;20037;-46
2022/01/19 06:32:08;;;;;;;15.10;8.88;;;-1.40;99.90;;;-2.28;100.00;98318.25;5023315;28;20030;-47
2022/01/19 06:34:34;;;;;;;18.52;9.70;;;-1.30;99.90;;;-2.18;100.00;98319.41;5022282;28;20711;-45
2022/01/19 06:36:59;;;;;;;19.40;9.98;;;-1.30;99.90;;;-2.07;100.00;98317.13;5023194;28;20395;-45
2022/01/19 06:39:25;;;;;;;19.02;9.50;;;-1.20;99.90;;;-1.92;100.00;98330.44;5017974;28;20037;-46
2022/01/19 06:41:51;;;;;;;16.75;9.35;;;-1.00;99.90;;;-1.80;100.00;98325.59;5023856;28;20033;-47
2022/01/19 06:44:17;;;;;;;16.40;9.27;;;-0.90;99.90;;;-1.71;100.00;98324.97;5018682;28;20124;-46
2022/01/19 06:46:44;;;;;;;22.25;10.45;;;-0.80;99.90;;;-1.65;100.00;98319.97;5017681;28;20033;-45
2022/01/19 06:49:10;;;;;;;20.85;11.07;;;-0.70;99.90;;;-1.59;100.00;98314.09;5023573;28;20112;-49
2022/01/19 06:51:36;;;;;;;15.63;10.27;;;-0.60;99.90;;;-1.66;100.00;98301.84;5022832;28;20033;-46
2022/01/19 06:54:02;;;;;;;24.25;11.48;;;-0.60;99.90;;;-1.60;100.00;98309.75;5022966;28;20022;-46
2022/01/19 06:56:28;;;;;;;22.70;11.43;;;-0.60;99.90;;;-1.60;100.00;98301.97;5022023;28;20025;-48
2022/01/19 06:58:53;;;;;;;16.70;10.40;;;-0.60;99.90;;;-1.58;100.00;98305.47;5019878;28;20670;-46
2022/01/19 07:01:20;;;;;;;17.73;10.18;;;-0.60;99.90;;;-1.66;100.00;98302.69;5016197;28;20034;-46
2022/01/19 07:03:45;;;;;;;19.38;10.57;;;-0.70;99.90;;;-1.70;100.00;98306.06;5022188;28;20038;-43
2022/01/19 07:06:11;;;;;;;18.92;10.77;;;-0.80;99.90;;;-1.78;100.00;98303.25;5016941;28;20060;-47
2022/01/19 07:08:41;;;;;;;24.52;11.20;;;-0.80;99.90;;;-1.80;100.00;98310.09;5017357;28;20227;-45
2022/01/19 07:11:07;;;;;;;19.02;10.20;;;-0.90;99.90;;;-1.82;100.00;98304.00;5017091;28;20060;-46
2022/01/19 07:13:33;;;;;;;19.00;11.85;;;-0.80;99.90;;;-1.66;100.00;98302.69;5020100;28;20069;-44
2022/01/19 07:15:59;;;;;;;23.80;11.40;;;-0.70;99.90;;;-1.66;100.00;98296.66;5017512;28;20029;-47
2022/01/19 07:18:25;;;;;;;19.67;11.30;;;-0.70;99.90;;;-1.67;100.00;98302.66;5019288;28;20033;-47
2022/01/19 07:20:51;;;;;;;19.35;11.65;;;-0.70;99.90;;;-1.70;100.00;98300.00;5018528;28;20044;-45
2022/01/19 07:23:16;;;;;;;19.30;11.15;;;-0.80;99.90;;;-1.79;100.00;98282.53;5025520;28;20569;-45
2022/01/19 07:25:42;;;;;;;20.45;11.57;;;-0.80;99.90;;;-1.73;100.00;98296.47;5019935;28;20084;-46
2022/01/19 07:28:11;;;;;;;17.75;10.82;;;-0.80;99.90;;;-1.76;100.00;98296.44;5017577;28;20436;-45
2022/01/19 07:30:38;;;;;;;21.02;11.20;;;-0.80;99.90;;;-1.75;100.00;98293.00;5018955;28;20501;-44
2022/01/19 07:33:04;;;;;;;21.08;11.13;;;-0.80;99.90;;;-1.74;100.00;98293.88;5018156;28;20045;-42
2022/01/19 07:35:30;;;;;;;17.83;10.50;;;-0.80;99.90;;;-1.79;100.00;98291.16;5019743;28;20351;-47
2022/01/19 07:37:56;;;;;;;21.20;11.38;;;-0.80;99.90;;;-1.79;100.00;98285.13;5018648;28;20068;-46
2022/01/19 07:40:22;;;;;;;22.42;11.43;;;-0.90;99.90;;;-1.77;100.00;98288.63;5024376;28;20071;-46
2022/01/19 07:42:48;;;;;;;19.80;11.10;;;-0.90;99.90;;;-1.75;100.00;98284.38;5026783;28;20052;-49
2022/01/19 07:45:14;;;;;;;17.73;12.43;;;-0.80;99.90;;;-1.79;100.00;98287.72;5028039;28;20551;-49
2022/01/19 07:47:40;;;;;;;24.33;13.13;;;-0.80;99.90;;;-1.78;100.00;98282.56;5026163;28;20060;-48
2022/01/19 07:50:07;;;;;;;21.45;12.32;;;-0.80;99.90;;;-1.75;100.00;98285.22;5028687;28;20025;-49
2022/01/19 07:52:33;;;;;;;21.73;12.23;;;-0.80;99.90;;;-1.74;100.00;98287.00;5027426;28;20491;-46
2022/01/19 07:54:58;;;;;;;18.45;12.23;;;-0.70;99.90;;;-1.67;100.00;98271.63;5027001;28;20025;-47
2022/01/19 07:57:24;;;;;;;17.75;12.10;;;-0.70;99.90;;;-1.65;100.00;98265.66;5030643;28;20327;-49
2022/01/19 07:59:50;;;;;;;19.05;11.65;;;-0.70;99.90;;;-1.60;100.00;98263.19;5028201;28;20060;-47
2022/01/19 08:02:16;;;;;;;24.02;13.88;;;-0.70;99.90;;;-1.64;100.00;98261.34;5024149;28;20026;-47
2022/01/19 08:04:42;;;;;;;19.05;11.75;;;-0.60;99.90;;;-1.51;100.00;98249.59;5026629;28;20116;-46
2022/01/19 08:07:08;;;;;;;22.50;12.70;;;-0.50;99.90;;;-1.42;100.00;98252.41;5023485;28;20061;-47
2022/01/19 08:09:35;;;;;;;18.70;11.88;;;-0.40;99.90;;;-1.39;100.00;98249.91;5027564;28;20108;-44
2022/01/19 08:12:02;;;;;;;18.35;12.23;;;-0.40;99.90;;;-1.35;100.00;98251.72;5024098;28;20447;-47
2022/01/19 08:14:29;;;;;;;24.70;12.70;;;-0.40;99.90;;;-1.30;100.00;98259.59;5027331;28;20467;-47
2022/01/19 08:16:56;;;;;;;23.88;12.98;;;-0.40;99.90;;;-1.26;100.00;98261.41;5023832;28;20045;-46
2022/01/19 08:19:22;;;;;;;20.52;12.38;;;-0.30;99.90;;;-1.31;100.00;98245.78;5026836;28;20111;-47
2022/01/19 08:21:48;;;;;;;24.92;13.50;;;-0.30;99.90;;;-1.24;100.00;98262.31;5024396;28;20442;-44
2022/01/19 08:24:14;;;;;;;19.70;13.07;;;-0.30;99.90;;;-1.18;100.00;98254.72;5025022;28;20128;-48
2022/01/19 08:26:41;;;;;;;22.83;13.25;;;-0.30;99.90;;;-1.13;100.00;98258.28;5026269;28;20038;-47
2022/01/19 08:29:06;;;;;;;21.77;13.13;;;-0.20;99.90;;;-1.10;100.00;98253.16;5023486;28;20103;-49
2022/01/19 08:31:33;;;;;;;23.45;13.57;;;-0.20;99.90;;;-1.05;100.00;98251.56;5028466;28;20026;-45
2022/01/19 08:33:59;;;;;;;24.40;12.88;;;-0.10;99.90;;;-0.93;100.00;98250.06;5020677;28;20025;-47
2022/01/19 08:36:26;;;;;;;24.48;13.88;;;0.00;99.90;;;-0.88;100.00;98251.06;5024690;28;20021;-47
2022/01/19 08:38:52;;;;;;;25.95;14.35;;;0.10;99.90;;;-0.88;100.00;98238.09;5023221;28;20499;-47
2022/01/19 08:41:18;;;;;;;24.30;13.98;;;0.10;99.90;;;-0.75;100.00;98247.00;5024610;28;20806;-45
2022/01/19 08:43:44;;;;;;;23.70;13.63;;;0.10;99.90;;;-0.71;100.00;98249.72;5024195;28;20059;-44
2022/01/19 08:46:10;;;;;;;25.65;13.63;;;0.20;99.90;;;-0.85;100.00;98228.69;5024681;28;20022;-47
2022/01/19 08:48:35;;;;;;;21.02;12.48;;;0.30;99.90;;;-0.69;100.00;98250.59;5026400;28;20570;-48
2022/01/19 08:51:02;;;;;;;22.08;14.00;;;0.30;99.90;;;-0.61;100.00;98251.66;5025667;28;20319;-46
2022/01/19 08:53:27;;;;;;;21.95;14.85;;;0.30;99.90;;;-0.59;100.00;98259.47;5025589;28;20188;-47
2022/01/19 08:55:53;;;;;;;24.02;14.77;;;0.40;99.90;;;-0.54;100.00;98260.41;5024575;28;20418;-47
2022/01/19 08:58:19;;;;;;;22.50;13.00;;;0.40;99.90;;;-0.49;100.00;98252.75;5023615;28;20045;-47
2022/01/19 09:00:46;;;;;;;24.83;14.68;;;0.40;99.90;;;-0.45;100.00;98254.53;5019489;28;20525;-47
2022/01/19 09:03:13;;;;;;;20.40;14.48;;;0.50;99.90;;;-0.42;100.00;98254.63;5023976;28;20509;-45
2022/01/19 09:05:39;;;;;;;22.40;14.02;;;0.50;99.90;;;-0.36;100.00;98257.31;5020617;28;20163;-47
2022/01/19 09:08:05;;;;;;;20.38;12.77;;;0.60;99.90;;;-0.30;100.00;98254.88;5023700;28;20038;-46
2022/01/19 09:10:31;;;;;;;24.35;14.20;;;0.60;99.90;;;-0.25;100.00;98248.06;5024636;28;20639;-49
2022/01/19 09:12:57;;;;;;;22.00;13.35;;;0.70;99.90;;;-0.17;100.00;98244.75;5019240;28;20103;-47
2022/01/19 09:15:23;;;;;;;19.10;12.73;;;0.80;99.90;;;-0.13;100.00;98257.78;5024350;28;20018;-50
2022/01/19 09:17:50;;;;;;;20.90;13.77;;;0.80;99.90;;;-0.05;100.00;98250.16;5020818;28;20025;-47
2022/01/19 09:20:16;;;;;;;19.67;13.05;;;0.90;99.90;;;0.02;100.00;98257.22;5022716;28;20029;-47
2022/01/19 09:22:43;;;;;;;21.48;13.23;;;0.90;99.90;;;0.07;100.00;98255.59;5025270;28;20030;-44
2022/01/19 09:25:10;;;;;;;21.27;13.13;;;1.00;99.90;;;0.12;100.00;98259.09;5021269;28;20469;-45
2022/01/19 09:27:39;;;;;;;20.80;13.00;;;1.10;99.90;;;0.17;100.00;98256.59;5021206;28;20025;-47
2022/01/19 09:30:18;;;;;;;20.95;13.43;;;1.10;99.90;;;0.24;100.00;98255.00;5022734;28;20026;-47
2022/01/19 09:32:54;;;;;;;23.58;12.57;;;1.20;99.90;;;0.30;100.00;98252.50;5025693;28;20462;-49
2022/01/19 09:35:24;;;;;;;26.33;13.27;;;1.20;99.90;;;0.31;100.00;98256.88;5016879;28;20495;-45
2022/01/19 09:37:50;;;;;;;18.75;12.20;;;1.30;99.90;;;0.38;100.00;98249.19;5006472;28;20338;-46
2022/01/19 09:40:16;;;;;;;18.75;11.85;;;1.30;99.90;;;0.45;100.00;98247.59;5026055;28;20034;-47
2022/01/19 09:42:45;;;;;;;22.80;13.27;;;1.40;99.90;;;0.50;100.00;98243.34;5025417;28;20072;-43
2022/01/19 09:45:10;;;;;;;17.88;11.63;;;1.40;99.90;;;0.51;100.00;98241.63;5021867;28;20059;-47
2022/01/19 09:47:36;;;;;;;19.00;12.23;;;1.50;99.90;;;0.61;100.00;98242.63;5001847;28;20069;-48
2022/01/19 09:50:04;;;;;;;18.52;11.13;;;1.60;99.90;;;0.69;100.00;98238.44;5020259;28;20593;-48
2022/01/19 09:52:30;;;;;;;18.70;11.30;;;1.60;99.90;;;0.68;100.00;98244.47;5021674;28;20592;-47
2022/01/19 09:54:56;;;;;;;19.58;11.45;;;1.70;99.90;;;0.76;100.00;98237.69;5032889;28;20071;-48
2022/01/19 09:57:22;;;;;;;17.90;11.02;;;1.70;99.90;;;0.85;100.00;98222.25;5026355;28;20053;-49
2022/01/19 09:59:48;;;;;;;19.45;11.23;;;1.80;99.90;;;0.95;100.00;98228.44;5023737;28;20038;-50
2022/01/19 10:02:16;;;;;;;20.83;11.60;;;1.80;99.90;;;1.03;100.00;98226.84;5021229;28;20040;-49
2022/01/19 10:04:46;;;;;;;18.17;10.52;;;1.90;99.90;;;1.07;100.00;98214.75;5024435;28;20041;-49
2022/01/19 10:07:24;;;;;;;15.93;9.95;;;2.00;99.90;;;1.10;100.00;98204.41;5023833;28;20030;-48
2022/01/19 10:10:08;;;;;;;14.27;9.65;;;2.10;99.90;;;1.21;100.00;98205.44;5019953;28;20069;-48
2022/01/19 10:18:25;;;;;;;16.02;8.95;;;2.30;99.90;;;1.50;100.00;98190.19;5021156;28;20652;-47
2022/01/19 10:21:16;;;;;;;14.07;9.05;;;2.40;99.90;;;1.57;100.00;98172.06;5022803;28;20029;-47
2022/01/19 10:23:48;;;;;;;13.07;8.57;;;2.40;99.90;;;1.68;100.00;98168.72;5022997;28;20040;-47
2022/01/19 10:26:27;;;;;;;14.55;8.85;;;2.50;99.90;;;1.74;100.00;98156.63;5021029;28;20646;-47
2022/01/19 10:29:00;;;;;;;14.82;9.30;;;2.60;99.90;;;1.83;100.00;98157.63;5022808;28;20034;-47
2022/01/19 10:31:30;;;;;;;;;;;2.70;99.90;;;1.93;100.00;98155.97;5020610;28;20030;-47
2022/01/19 10:34:22;;;;;;;18.42;10.45;;;2.80;99.90;;;2.04;100.00;98153.47;5023050;28;20416;-47
2022/01/19 10:36:56;;;;;;;14.85;10.23;;;2.90;99.90;;;2.14;100.00;98139.69;5015294;28;20045;-45
2022/01/19 10:39:25;;;;;;;16.38;10.38;;;3.00;99.90;;;2.22;100.00;98138.00;5020817;28;20065;-44
2022/01/19 10:42:05;;;;;;;16.38;9.80;;;3.10;99.90;;;2.28;100.00;98132.00;5008103;28;20040;-44
2022/01/19 10:44:35;;;;;;;15.02;9.73;;;3.10;99.90;;;2.37;100.00;98136.38;5022903;28;20032;-47
2022/01/19 10:47:01;;;;;;;17.38;9.88;;;3.20;99.90;;;2.42;100.00;98127.75;5018587;28;20395;-43
2022/01/19 10:49:26;;;;;;;15.40;10.32;;;3.20;99.90;;;2.43;99.74;98119.06;5024795;28;20027;-46
2022/01/19 10:51:58;;;;;;;15.90;9.88;;;3.30;99.90;;;2.39;98.64;98106.03;5021206;28;20041;-45
2022/01/19 10:54:30;;;;;;;13.27;9.43;;;3.30;99.90;;;2.50;98.33;98120.00;5019843;28;20111;-47
2022/01/19 10:56:58;;;;;;;18.83;10.80;;;3.30;99.90;;;2.59;97.84;98116.59;5019672;28;20029;-46
2022/01/19 10:59:30;;;;;;;15.75;10.65;;;3.40;99.90;;;2.64;98.01;98117.50;5022337;28;20033;-45
2022/01/19 11:01:59;;;;;;;;;;;3.40;99.90;;;2.73;97.20;98120.16;5022481;28;20021;-45
2022/01/19 11:04:33;;;;;;;18.42;11.30;;;3.50;99.90;;;2.78;96.53;98113.22;5024395;28;19937;-47
2022/01/19 11:07:12;;;;;;;18.13;11.30;;;3.50;99.90;;;2.79;96.62;98114.94;5020169;28;20032;-46
2022/01/19 11:09:56;;;;;;;22.27;12.07;;;3.60;99.90;;;2.83;96.03;98108.88;5021960;28;20117;-47
2022/01/19 11:12:28;;;;;;;18.15;11.48;;;3.60;99.90;;;2.80;95.87;98110.59;5023482;28;20112;-44
2022/01/19 11:14:54;;;;;;;22.30;11.13;;;3.60;99.90;;;2.86;95.28;98108.06;5021148;28;20041;-46
2022/01/19 11:17:19;;;;;;;17.90;11.65;;;3.60;99.90;;;2.83;95.38;98113.22;5018985;28;20392;-49
2022/01/19 11:19:45;;;;;;;21.40;11.98;;;3.60;99.90;;;2.91;95.25;98113.25;5021468;28;20069;-48
2022/01/19 11:22:49;;;;;;;18.73;10.57;;;3.70;99.90;;;3.11;93.76;98100.34;5014444;28;20158;-43
2022/01/19 11:25:52;;;;;;;18.27;10.98;;;3.80;99.90;;;3.05;93.46;98090.75;5014670;28;20049;-46
2022/01/19 11:28:35;;;;;;;17.17;11.30;;;3.80;99.90;;;3.02;94.17;98095.97;5004776;28;20388;-46
2022/01/19 11:31:15;;;;;;;23.13;11.20;;;3.90;99.90;;;3.00;94.50;98093.34;5021285;28;20032;-47
2022/01/19 11:33:58;;;;;;;19.00;9.98;;;3.90;99.90;;;3.04;94.33;98084.66;5020852;28;20033;-43
2022/01/19 11:36:40;;;;;;;20.85;10.90;;;3.80;99.90;;;3.09;93.44;98087.31;5022171;28;20052;-45
2022/01/19 11:39:22;;;;;;;18.85;11.20;;;3.80;99.90;;;3.14;92.37;98080.38;5023759;28;20075;-44